sensor_id;sensor_type;location;lat;lon;timestamp;temperature;humidity
57566;DHT22;63999;43.882;-0.310;2023-06-14T00:02:15;20.10;83.30
57566;DHT22;63999;43.882;-0.310;2023-06-14T00:04:44;20.00;83.40
57566;DHT22;63999;43.882;-0.310;2023-06-14T00:07:12;20.00;83.50
57566;DHT22;63999;43.882;-0.310;2023-06-14T00:09:39;20.00;83.50
57566;DHT22;63999;43.882;-0.310;2023-06-14T00:12:08;20.00;83.50
57566;DHT22;63999;43.882;-0.310;2023-06-14T00:14:34;20.00;83.50
57566;DHT22;63999;43.882;-0.310;2023-06-14T00:17:00;20.00;83.40
57566;DHT22;63999;43.882;-0.310;2023-06-14T00:19:29;20.00;83.60
57566;DHT22;63999;43.882;-0.310;2023-06-14T00:22:01;20.00;83.60
57566;DHT22;63999;43.882;-0.310;2023-06-14T00:24:30;20.00;83.60
57566;DHT22;63999;43.882;-0.310;2023-06-14T00:26:59;20.00;83.60
57566;DHT22;63999;43.882;-0.310;2023-06-14T00:29:24;20.00;83.60
57566;DHT22;63999;43.882;-0.310;2023-06-14T00:31:50;20.00;83.60
57566;DHT22;63999;43.882;-0.310;2023-06-14T00:34:16;20.00;83.60
57566;DHT22;63999;43.882;-0.310;2023-06-14T00:36:42;20.00;83.60
57566;DHT22;63999;43.882;-0.310;2023-06-14T00:39:08;20.00;83.60
57566;DHT22;63999;43.882;-0.310;2023-06-14T00:41:35;20.00;83.50
57566;DHT22;63999;43.882;-0.310;2023-06-14T00:44:00;20.00;83.50
57566;DHT22;63999;43.882;-0.310;2023-06-14T00:46:26;20.00;83.50
57566;DHT22;63999;43.882;-0.310;2023-06-14T00:48:52;20.00;83.50
57566;DHT22;63999;43.882;-0.310;2023-06-14T00:51:19;20.00;83.70
57566;DHT22;63999;43.882;-0.310;2023-06-14T00:53:50;19.90;83.60
57566;DHT22;63999;43.882;-0.310;2023-06-14T00:56:16;20.00;83.70
57566;DHT22;63999;43.882;-0.310;2023-06-14T00:58:49;20.00;83.60
57566;DHT22;63999;43.882;-0.310;2023-06-14T01:01:19;20.00;83.60
57566;DHT22;63999;43.882;-0.310;2023-06-14T01:03:45;20.00;83.50
57566;DHT22;63999;43.882;-0.310;2023-06-14T01:09:15;19.90;83.70
57566;DHT22;63999;43.882;-0.310;2023-06-14T01:12:09;20.00;83.40
57566;DHT22;63999;43.882;-0.310;2023-06-14T01:14:41;19.90;83.50
57566;DHT22;63999;43.882;-0.310;2023-06-14T01:17:08;19.90;83.70
57566;DHT22;63999;43.882;-0.310;2023-06-14T01:19:42;19.90;83.60
57566;DHT22;63999;43.882;-0.310;2023-06-14T01:22:08;19.90;83.70
57566;DHT22;63999;43.882;-0.310;2023-06-14T01:24:34;19.90;83.60
57566;DHT22;63999;43.882;-0.310;2023-06-14T01:27:03;19.90;83.60
57566;DHT22;63999;43.882;-0.310;2023-06-14T01:29:29;19.90;83.50
57566;DHT22;63999;43.882;-0.310;2023-06-14T01:31:59;19.90;84.00
57566;DHT22;63999;43.882;-0.310;2023-06-14T01:34:26;20.00;83.70
57566;DHT22;63999;43.882;-0.310;2023-06-14T01:36:56;19.90;83.60
57566;DHT22;63999;43.882;-0.310;2023-06-14T01:39:25;19.90;83.70
57566;DHT22;63999;43.882;-0.310;2023-06-14T01:41:52;19.90;83.70
57566;DHT22;63999;43.882;-0.310;2023-06-14T01:44:19;20.00;83.60
57566;DHT22;63999;43.882;-0.310;2023-06-14T01:46:45;20.00;83.60
57566;DHT22;63999;43.882;-0.310;2023-06-14T01:49:11;20.00;83.60
57566;DHT22;63999;43.882;-0.310;2023-06-14T01:51:37;20.00;83.70
57566;DHT22;63999;43.882;-0.310;2023-06-14T01:54:03;20.00;83.70
57566;DHT22;63999;43.882;-0.310;2023-06-14T01:56:32;20.00;83.60
57566;DHT22;63999;43.882;-0.310;2023-06-14T01:58:58;20.00;83.70
57566;DHT22;63999;43.882;-0.310;2023-06-14T02:01:24;20.00;83.70
57566;DHT22;63999;43.882;-0.310;2023-06-14T02:03:50;20.00;83.60
57566;DHT22;63999;43.882;-0.310;2023-06-14T02:06:16;20.00;83.60
57566;DHT22;63999;43.882;-0.310;2023-06-14T02:08:42;19.90;84.20
57566;DHT22;63999;43.882;-0.310;2023-06-14T02:11:08;20.00;83.80
57566;DHT22;63999;43.882;-0.310;2023-06-14T02:13:34;20.00;83.90
57566;DHT22;63999;43.882;-0.310;2023-06-14T02:16:00;20.00;83.70
57566;DHT22;63999;43.882;-0.310;2023-06-14T02:18:26;20.00;84.00
57566;DHT22;63999;43.882;-0.310;2023-06-14T02:20:55;19.90;84.10
57566;DHT22;63999;43.882;-0.310;2023-06-14T02:23:27;19.90;84.70
57566;DHT22;63999;43.882;-0.310;2023-06-14T02:25:53;20.00;84.80
57566;DHT22;63999;43.882;-0.310;2023-06-14T02:28:21;20.00;83.90
57566;DHT22;63999;43.882;-0.310;2023-06-14T02:30:47;20.00;84.10
57566;DHT22;63999;43.882;-0.310;2023-06-14T02:33:13;20.00;84.10
57566;DHT22;63999;43.882;-0.310;2023-06-14T02:35:39;20.00;84.00
57566;DHT22;63999;43.882;-0.310;2023-06-14T02:38:05;20.00;84.00
57566;DHT22;63999;43.882;-0.310;2023-06-14T02:40:33;20.00;84.00
57566;DHT22;63999;43.882;-0.310;2023-06-14T02:43:02;20.00;84.10
57566;DHT22;63999;43.882;-0.310;2023-06-14T02:45:28;20.00;84.20
57566;DHT22;63999;43.882;-0.310;2023-06-14T02:47:54;20.00;84.20
57566;DHT22;63999;43.882;-0.310;2023-06-14T02:50:22;20.00;84.00
57566;DHT22;63999;43.882;-0.310;2023-06-14T02:52:49;20.00;84.00
57566;DHT22;63999;43.882;-0.310;2023-06-14T02:55:18;20.00;84.20
57566;DHT22;63999;43.882;-0.310;2023-06-14T02:57:44;20.00;84.10
57566;DHT22;63999;43.882;-0.310;2023-06-14T03:00:16;20.00;84.30
57566;DHT22;63999;43.882;-0.310;2023-06-14T03:02:42;20.00;84.30
57566;DHT22;63999;43.882;-0.310;2023-06-14T03:05:08;20.00;84.50
57566;DHT22;63999;43.882;-0.310;2023-06-14T03:07:35;20.00;84.70
57566;DHT22;63999;43.882;-0.310;2023-06-14T03:10:08;20.00;84.50
57566;DHT22;63999;43.882;-0.310;2023-06-14T03:12:35;20.00;84.40
57566;DHT22;63999;43.882;-0.310;2023-06-14T03:15:02;20.00;84.70
57566;DHT22;63999;43.882;-0.310;2023-06-14T03:17:28;20.00;84.60
57566;DHT22;63999;43.882;-0.310;2023-06-14T03:20:01;20.00;84.80
57566;DHT22;63999;43.882;-0.310;2023-06-14T03:22:27;19.90;85.20
57566;DHT22;63999;43.882;-0.310;2023-06-14T03:24:54;19.90;85.00
57566;DHT22;63999;43.882;-0.310;2023-06-14T03:27:22;19.90;84.70
57566;DHT22;63999;43.882;-0.310;2023-06-14T03:30:11;19.90;85.10
57566;DHT22;63999;43.882;-0.310;2023-06-14T03:32:37;19.90;84.90
57566;DHT22;63999;43.882;-0.310;2023-06-14T03:35:06;19.90;85.50
57566;DHT22;63999;43.882;-0.310;2023-06-14T03:37:32;19.90;84.80
57566;DHT22;63999;43.882;-0.310;2023-06-14T03:40:00;20.00;84.60
57566;DHT22;63999;43.882;-0.310;2023-06-14T03:42:29;20.00;84.70
57566;DHT22;63999;43.882;-0.310;2023-06-14T03:44:58;20.00;85.20
57566;DHT22;63999;43.882;-0.310;2023-06-14T03:47:24;20.00;85.00
57566;DHT22;63999;43.882;-0.310;2023-06-14T03:49:50;20.00;84.90
57566;DHT22;63999;43.882;-0.310;2023-06-14T03:52:18;19.90;85.10
57566;DHT22;63999;43.882;-0.310;2023-06-14T03:54:50;19.90;85.00
57566;DHT22;63999;43.882;-0.310;2023-06-14T03:57:16;20.00;84.90
57566;DHT22;63999;43.882;-0.310;2023-06-14T03:59:41;20.00;85.20
57566;DHT22;63999;43.882;-0.310;2023-06-14T04:02:07;20.00;85.30
57566;DHT22;63999;43.882;-0.310;2023-06-14T04:04:37;20.00;85.30
57566;DHT22;63999;43.882;-0.310;2023-06-14T04:07:03;19.90;85.70
57566;DHT22;63999;43.882;-0.310;2023-06-14T04:09:30;19.90;85.80
57566;DHT22;63999;43.882;-0.310;2023-06-14T04:11:55;19.90;85.40
57566;DHT22;63999;43.882;-0.310;2023-06-14T04:14:21;19.90;85.50
57566;DHT22;63999;43.882;-0.310;2023-06-14T04:16:48;20.00;85.30
57566;DHT22;63999;43.882;-0.310;2023-06-14T04:19:16;20.00;85.00
57566;DHT22;63999;43.882;-0.310;2023-06-14T04:21:42;20.00;85.00
57566;DHT22;63999;43.882;-0.310;2023-06-14T04:24:08;20.00;84.90
57566;DHT22;63999;43.882;-0.310;2023-06-14T04:26:43;20.00;85.10
57566;DHT22;63999;43.882;-0.310;2023-06-14T04:29:14;20.00;85.20
57566;DHT22;63999;43.882;-0.310;2023-06-14T04:31:42;20.00;85.50
57566;DHT22;63999;43.882;-0.310;2023-06-14T04:34:10;20.00;85.10
57566;DHT22;63999;43.882;-0.310;2023-06-14T04:36:44;20.00;85.20
57566;DHT22;63999;43.882;-0.310;2023-06-14T04:39:22;20.00;85.50
57566;DHT22;63999;43.882;-0.310;2023-06-14T04:41:51;20.00;85.00
57566;DHT22;63999;43.882;-0.310;2023-06-14T04:44:18;20.00;85.00
57566;DHT22;63999;43.882;-0.310;2023-06-14T04:46:45;20.00;85.00
57566;DHT22;63999;43.882;-0.310;2023-06-14T04:49:15;20.00;84.80
57566;DHT22;63999;43.882;-0.310;2023-06-14T04:51:46;20.00;85.00
57566;DHT22;63999;43.882;-0.310;2023-06-14T04:54:14;20.00;85.00
57566;DHT22;63999;43.882;-0.310;2023-06-14T04:56:46;20.00;84.90
57566;DHT22;63999;43.882;-0.310;2023-06-14T04:59:12;20.10;85.10
57566;DHT22;63999;43.882;-0.310;2023-06-14T05:01:38;20.10;85.20
57566;DHT22;63999;43.882;-0.310;2023-06-14T05:04:04;20.20;84.70
57566;DHT22;63999;43.882;-0.310;2023-06-14T05:06:32;20.10;84.80
57566;DHT22;63999;43.882;-0.310;2023-06-14T05:08:58;20.10;85.10
57566;DHT22;63999;43.882;-0.310;2023-06-14T05:11:24;20.10;85.30
57566;DHT22;63999;43.882;-0.310;2023-06-14T05:13:50;20.10;85.00
57566;DHT22;63999;43.882;-0.310;2023-06-14T05:16:19;20.10;84.80
57566;DHT22;63999;43.882;-0.310;2023-06-14T05:18:46;20.10;85.00
57566;DHT22;63999;43.882;-0.310;2023-06-14T05:21:13;20.10;84.90
57566;DHT22;63999;43.882;-0.310;2023-06-14T05:23:43;20.20;85.10
57566;DHT22;63999;43.882;-0.310;2023-06-14T05:26:10;20.20;84.90
57566;DHT22;63999;43.882;-0.310;2023-06-14T05:28:36;20.20;84.80
57566;DHT22;63999;43.882;-0.310;2023-06-14T05:31:02;20.10;85.00
57566;DHT22;63999;43.882;-0.310;2023-06-14T05:33:28;20.10;85.10
57566;DHT22;63999;43.882;-0.310;2023-06-14T05:35:57;20.10;85.10
57566;DHT22;63999;43.882;-0.310;2023-06-14T05:38:23;20.10;85.40
57566;DHT22;63999;43.882;-0.310;2023-06-14T05:40:49;20.10;85.00
57566;DHT22;63999;43.882;-0.310;2023-06-14T05:43:14;20.10;85.50
57566;DHT22;63999;43.882;-0.310;2023-06-14T05:45:40;20.10;85.30
57566;DHT22;63999;43.882;-0.310;2023-06-14T05:48:08;20.10;85.20
57566;DHT22;63999;43.882;-0.310;2023-06-14T05:50:34;20.10;85.20
57566;DHT22;63999;43.882;-0.310;2023-06-14T05:53:08;20.20;85.20
57566;DHT22;63999;43.882;-0.310;2023-06-14T05:55:39;20.10;85.40
57566;DHT22;63999;43.882;-0.310;2023-06-14T05:58:05;20.20;85.10
57566;DHT22;63999;43.882;-0.310;2023-06-14T06:00:31;20.20;85.00
57566;DHT22;63999;43.882;-0.310;2023-06-14T06:02:57;20.20;85.00
57566;DHT22;63999;43.882;-0.310;2023-06-14T06:05:23;20.20;85.50
57566;DHT22;63999;43.882;-0.310;2023-06-14T06:07:49;20.30;85.20
57566;DHT22;63999;43.882;-0.310;2023-06-14T06:10:15;20.20;85.00
57566;DHT22;63999;43.882;-0.310;2023-06-14T06:12:42;20.20;85.00
57566;DHT22;63999;43.882;-0.310;2023-06-14T06:18:33;20.20;85.10
57566;DHT22;63999;43.882;-0.310;2023-06-14T06:20:59;20.30;85.30
57566;DHT22;63999;43.882;-0.310;2023-06-14T06:23:29;20.30;85.10
57566;DHT22;63999;43.882;-0.310;2023-06-14T06:25:58;20.30;85.50
57566;DHT22;63999;43.882;-0.310;2023-06-14T06:28:24;20.30;85.30
57566;DHT22;63999;43.882;-0.310;2023-06-14T06:30:52;20.20;85.20
57566;DHT22;63999;43.882;-0.310;2023-06-14T06:33:19;20.20;85.20
57566;DHT22;63999;43.882;-0.310;2023-06-14T06:35:45;20.20;85.30
57566;DHT22;63999;43.882;-0.310;2023-06-14T06:38:16;20.20;85.10
57566;DHT22;63999;43.882;-0.310;2023-06-14T06:40:44;20.30;85.10
57566;DHT22;63999;43.882;-0.310;2023-06-14T06:43:13;20.30;85.30
57566;DHT22;63999;43.882;-0.310;2023-06-14T06:45:45;20.30;85.30
57566;DHT22;63999;43.882;-0.310;2023-06-14T06:48:11;20.30;85.00
57566;DHT22;63999;43.882;-0.310;2023-06-14T06:50:37;20.20;85.00
57566;DHT22;63999;43.882;-0.310;2023-06-14T06:53:03;20.30;85.10
57566;DHT22;63999;43.882;-0.310;2023-06-14T06:55:31;20.20;85.00
57566;DHT22;63999;43.882;-0.310;2023-06-14T06:57:56;20.20;85.40
57566;DHT22;63999;43.882;-0.310;2023-06-14T07:00:22;20.20;85.30
57566;DHT22;63999;43.882;-0.310;2023-06-14T07:02:48;20.30;85.10
57566;DHT22;63999;43.882;-0.310;2023-06-14T07:05:14;20.30;85.10
57566;DHT22;63999;43.882;-0.310;2023-06-14T07:07:43;20.30;85.40
57566;DHT22;63999;43.882;-0.310;2023-06-14T07:10:09;20.30;85.10
57566;DHT22;63999;43.882;-0.310;2023-06-14T07:12:35;20.30;85.40
57566;DHT22;63999;43.882;-0.310;2023-06-14T07:15:06;20.30;85.20
57566;DHT22;63999;43.882;-0.310;2023-06-14T07:17:32;20.30;85.30
57566;DHT22;63999;43.882;-0.310;2023-06-14T07:19:58;20.30;86.40
57566;DHT22;63999;43.882;-0.310;2023-06-14T07:22:38;20.30;85.50
57566;DHT22;63999;43.882;-0.310;2023-06-14T07:25:07;20.30;85.40
57566;DHT22;63999;43.882;-0.310;2023-06-14T07:27:36;20.30;85.50
57566;DHT22;63999;43.882;-0.310;2023-06-14T07:30:02;20.30;85.50
57566;DHT22;63999;43.882;-0.310;2023-06-14T07:32:27;20.30;85.40
57566;DHT22;63999;43.882;-0.310;2023-06-14T07:34:56;20.30;85.90
57566;DHT22;63999;43.882;-0.310;2023-06-14T07:37:22;20.30;85.40
57566;DHT22;63999;43.882;-0.310;2023-06-14T07:39:48;20.30;85.40
57566;DHT22;63999;43.882;-0.310;2023-06-14T07:42:14;20.30;85.60
57566;DHT22;63999;43.882;-0.310;2023-06-14T07:44:40;20.30;85.50
57566;DHT22;63999;43.882;-0.310;2023-06-14T07:47:06;20.30;85.40
57566;DHT22;63999;43.882;-0.310;2023-06-14T07:49:31;20.30;85.50
57566;DHT22;63999;43.882;-0.310;2023-06-14T07:51:58;20.30;85.50
57566;DHT22;63999;43.882;-0.310;2023-06-14T07:54:24;20.30;85.70
57566;DHT22;63999;43.882;-0.310;2023-06-14T07:56:52;20.30;85.70
57566;DHT22;63999;43.882;-0.310;2023-06-14T07:59:21;20.30;85.70
57566;DHT22;63999;43.882;-0.310;2023-06-14T08:01:49;20.30;86.20
57566;DHT22;63999;43.882;-0.310;2023-06-14T08:04:17;20.30;85.60
57566;DHT22;63999;43.882;-0.310;2023-06-14T08:06:45;20.30;85.80
57566;DHT22;63999;43.882;-0.310;2023-06-14T08:09:13;20.30;85.70
57566;DHT22;63999;43.882;-0.310;2023-06-14T08:11:38;20.30;85.70
57566;DHT22;63999;43.882;-0.310;2023-06-14T08:14:04;20.30;85.70
57566;DHT22;63999;43.882;-0.310;2023-06-14T08:16:30;20.30;85.60
57566;DHT22;63999;43.882;-0.310;2023-06-14T08:18:56;20.30;85.60
57566;DHT22;63999;43.882;-0.310;2023-06-14T08:21:22;20.30;85.90
57566;DHT22;63999;43.882;-0.310;2023-06-14T08:23:48;20.40;86.00
57566;DHT22;63999;43.882;-0.310;2023-06-14T08:26:14;20.30;86.00
57566;DHT22;63999;43.882;-0.310;2023-06-14T08:28:40;20.40;86.40
57566;DHT22;63999;43.882;-0.310;2023-06-14T08:31:06;20.40;85.90
57566;DHT22;63999;43.882;-0.310;2023-06-14T08:33:31;20.50;85.90
57566;DHT22;63999;43.882;-0.310;2023-06-14T08:36:00;20.40;85.80
57566;DHT22;63999;43.882;-0.310;2023-06-14T08:38:26;20.40;85.70
57566;DHT22;63999;43.882;-0.310;2023-06-14T08:40:52;20.50;85.90
57566;DHT22;63999;43.882;-0.310;2023-06-14T08:43:22;20.50;86.10
57566;DHT22;63999;43.882;-0.310;2023-06-14T08:45:49;20.50;86.20
57566;DHT22;63999;43.882;-0.310;2023-06-14T08:48:20;20.50;85.90
57566;DHT22;63999;43.882;-0.310;2023-06-14T08:50:48;20.50;86.40
57566;DHT22;63999;43.882;-0.310;2023-06-14T08:53:14;20.60;86.50
57566;DHT22;63999;43.882;-0.310;2023-06-14T08:55:45;20.60;86.20
57566;DHT22;63999;43.882;-0.310;2023-06-14T08:58:13;20.60;86.30
57566;DHT22;63999;43.882;-0.310;2023-06-14T09:00:43;20.60;86.00
57566;DHT22;63999;43.882;-0.310;2023-06-14T09:03:12;20.50;86.20
57566;DHT22;63999;43.882;-0.310;2023-06-14T09:05:41;20.60;86.30
57566;DHT22;63999;43.882;-0.310;2023-06-14T09:08:10;20.60;86.30
57566;DHT22;63999;43.882;-0.310;2023-06-14T09:10:41;20.60;86.40
57566;DHT22;63999;43.882;-0.310;2023-06-14T09:13:07;20.60;86.20
57566;DHT22;63999;43.882;-0.310;2023-06-14T09:15:34;20.60;86.20
57566;DHT22;63999;43.882;-0.310;2023-06-14T09:18:03;20.60;86.80
57566;DHT22;63999;43.882;-0.310;2023-06-14T09:20:30;20.60;86.20
57566;DHT22;63999;43.882;-0.310;2023-06-14T09:22:56;20.60;86.30
57566;DHT22;63999;43.882;-0.310;2023-06-14T09:25:22;20.60;86.50
57566;DHT22;63999;43.882;-0.310;2023-06-14T09:27:51;20.60;86.30
57566;DHT22;63999;43.882;-0.310;2023-06-14T09:30:20;20.60;87.10
57566;DHT22;63999;43.882;-0.310;2023-06-14T09:32:46;20.70;86.40
57566;DHT22;63999;43.882;-0.310;2023-06-14T09:35:14;20.60;86.40
57566;DHT22;63999;43.882;-0.310;2023-06-14T09:37:45;20.70;86.50
57566;DHT22;63999;43.882;-0.310;2023-06-14T09:40:12;20.70;86.70
57566;DHT22;63999;43.882;-0.310;2023-06-14T09:42:38;20.70;86.60
57566;DHT22;63999;43.882;-0.310;2023-06-14T09:45:05;20.80;86.70
57566;DHT22;63999;43.882;-0.310;2023-06-14T09:47:31;20.80;87.40
57566;DHT22;63999;43.882;-0.310;2023-06-14T09:49:59;20.80;86.80
57566;DHT22;63999;43.882;-0.310;2023-06-14T09:52:27;20.80;86.60
57566;DHT22;63999;43.882;-0.310;2023-06-14T09:54:55;20.80;87.50
57566;DHT22;63999;43.882;-0.310;2023-06-14T09:57:22;20.80;87.20
57566;DHT22;63999;43.882;-0.310;2023-06-14T09:59:51;20.90;87.10
57566;DHT22;63999;43.882;-0.310;2023-06-14T10:04:53;20.90;86.70
57566;DHT22;63999;43.882;-0.310;2023-06-14T10:07:26;20.90;87.00
57566;DHT22;63999;43.882;-0.310;2023-06-14T10:09:53;20.90;86.60
57566;DHT22;63999;43.882;-0.310;2023-06-14T10:12:19;20.90;86.80
57566;DHT22;63999;43.882;-0.310;2023-06-14T10:14:49;20.90;86.60
57566;DHT22;63999;43.882;-0.310;2023-06-14T10:17:27;20.90;86.70
57566;DHT22;63999;43.882;-0.310;2023-06-14T10:20:28;20.90;88.30
57566;DHT22;63999;43.882;-0.310;2023-06-14T10:23:03;20.90;86.70
57566;DHT22;63999;43.882;-0.310;2023-06-14T10:25:33;20.90;87.00
57566;DHT22;63999;43.882;-0.310;2023-06-14T10:28:19;20.90;87.10
57566;DHT22;63999;43.882;-0.310;2023-06-14T10:31:10;20.90;86.80
57566;DHT22;63999;43.882;-0.310;2023-06-14T10:33:48;20.90;87.20
57566;DHT22;63999;43.882;-0.310;2023-06-14T10:39:10;21.00;87.30
57566;DHT22;63999;43.882;-0.310;2023-06-14T10:41:38;21.10;88.20
57566;DHT22;63999;43.882;-0.310;2023-06-14T10:44:31;21.10;87.80
57566;DHT22;63999;43.882;-0.310;2023-06-14T10:47:01;21.10;87.30
57566;DHT22;63999;43.882;-0.310;2023-06-14T10:49:43;21.10;87.30
57566;DHT22;63999;43.882;-0.310;2023-06-14T10:52:16;21.10;87.60
57566;DHT22;63999;43.882;-0.310;2023-06-14T10:57:47;21.10;88.90
57566;DHT22;63999;43.882;-0.310;2023-06-14T11:00:16;21.20;88.50
57566;DHT22;63999;43.882;-0.310;2023-06-14T11:05:25;21.50;87.40
57566;DHT22;63999;43.882;-0.310;2023-06-14T11:10:37;21.40;90.00
57566;DHT22;63999;43.882;-0.310;2023-06-14T11:13:03;21.40;87.70
57566;DHT22;63999;43.882;-0.310;2023-06-14T11:15:36;21.40;88.00
57566;DHT22;63999;43.882;-0.310;2023-06-14T11:18:06;21.40;90.00
57566;DHT22;63999;43.882;-0.310;2023-06-14T11:20:34;21.50;88.90
57566;DHT22;63999;43.882;-0.310;2023-06-14T11:23:01;21.50;87.50
57566;DHT22;63999;43.882;-0.310;2023-06-14T11:25:27;21.50;87.00
57566;DHT22;63999;43.882;-0.310;2023-06-14T11:27:54;21.50;88.50
57566;DHT22;63999;43.882;-0.310;2023-06-14T11:30:23;21.50;87.20
57566;DHT22;63999;43.882;-0.310;2023-06-14T11:32:51;21.50;89.00
57566;DHT22;63999;43.882;-0.310;2023-06-14T11:35:24;21.50;89.40
57566;DHT22;63999;43.882;-0.310;2023-06-14T11:37:57;21.50;88.10
57566;DHT22;63999;43.882;-0.310;2023-06-14T11:40:25;21.50;87.60
57566;DHT22;63999;43.882;-0.310;2023-06-14T11:43:05;21.60;87.40
57566;DHT22;63999;43.882;-0.310;2023-06-14T11:45:48;21.50;88.60
57566;DHT22;63999;43.882;-0.310;2023-06-14T11:48:17;21.50;87.40
57566;DHT22;63999;43.882;-0.310;2023-06-14T11:50:51;21.50;87.20
57566;DHT22;63999;43.882;-0.310;2023-06-14T11:53:18;21.50;89.40
57566;DHT22;63999;43.882;-0.310;2023-06-14T11:55:46;21.70;88.50
57566;DHT22;63999;43.882;-0.310;2023-06-14T11:58:13;21.90;88.00
57566;DHT22;63999;43.882;-0.310;2023-06-14T12:00:44;21.70;88.20
57566;DHT22;63999;43.882;-0.310;2023-06-14T12:03:10;21.80;88.50
57566;DHT22;63999;43.882;-0.310;2023-06-14T12:05:38;22.00;88.00
57566;DHT22;63999;43.882;-0.310;2023-06-14T12:08:04;21.90;88.10
57566;DHT22;63999;43.882;-0.310;2023-06-14T12:10:40;21.90;88.40
57566;DHT22;63999;43.882;-0.310;2023-06-14T12:13:17;21.90;87.50
57566;DHT22;63999;43.882;-0.310;2023-06-14T12:15:46;21.90;89.20
57566;DHT22;63999;43.882;-0.310;2023-06-14T12:18:20;21.90;91.60
57566;DHT22;63999;43.882;-0.310;2023-06-14T12:20:49;21.90;87.50
57566;DHT22;63999;43.882;-0.310;2023-06-14T12:23:16;22.00;88.30
57566;DHT22;63999;43.882;-0.310;2023-06-14T12:25:42;21.90;89.30
57566;DHT22;63999;43.882;-0.310;2023-06-14T12:28:10;22.00;89.00
57566;DHT22;63999;43.882;-0.310;2023-06-14T12:30:37;22.10;88.20
57566;DHT22;63999;43.882;-0.310;2023-06-14T12:33:05;22.00;88.90
57566;DHT22;63999;43.882;-0.310;2023-06-14T12:35:35;22.10;88.40
57566;DHT22;63999;43.882;-0.310;2023-06-14T12:38:07;22.00;87.70
57566;DHT22;63999;43.882;-0.310;2023-06-14T12:40:47;22.10;89.20
57566;DHT22;63999;43.882;-0.310;2023-06-14T12:43:15;22.20;88.90
57566;DHT22;63999;43.882;-0.310;2023-06-14T12:45:44;22.30;87.80
57566;DHT22;63999;43.882;-0.310;2023-06-14T12:48:15;22.30;88.20
57566;DHT22;63999;43.882;-0.310;2023-06-14T12:50:43;22.30;88.30
57566;DHT22;63999;43.882;-0.310;2023-06-14T12:53:13;22.30;87.50
57566;DHT22;63999;43.882;-0.310;2023-06-14T12:55:39;22.20;87.80
57566;DHT22;63999;43.882;-0.310;2023-06-14T12:58:05;22.20;89.00
57566;DHT22;63999;43.882;-0.310;2023-06-14T13:00:43;22.20;88.00
57566;DHT22;63999;43.882;-0.310;2023-06-14T13:03:12;22.20;87.80
57566;DHT22;63999;43.882;-0.310;2023-06-14T13:05:44;22.30;88.80
57566;DHT22;63999;43.882;-0.310;2023-06-14T13:08:19;22.30;88.20
57566;DHT22;63999;43.882;-0.310;2023-06-14T13:10:54;22.20;88.00
57566;DHT22;63999;43.882;-0.310;2023-06-14T13:13:20;22.30;89.30
57566;DHT22;63999;43.882;-0.310;2023-06-14T13:15:49;22.50;89.10
57566;DHT22;63999;43.882;-0.310;2023-06-14T13:18:18;22.50;87.60
57566;DHT22;63999;43.882;-0.310;2023-06-14T13:20:46;22.40;88.10
57566;DHT22;63999;43.882;-0.310;2023-06-14T13:23:15;22.30;88.50
57566;DHT22;63999;43.882;-0.310;2023-06-14T13:25:41;22.60;88.90
57566;DHT22;63999;43.882;-0.310;2023-06-14T13:28:16;22.60;87.00
57566;DHT22;63999;43.882;-0.310;2023-06-14T13:30:53;22.60;87.60
57566;DHT22;63999;43.882;-0.310;2023-06-14T13:34:07;22.60;88.00
57566;DHT22;63999;43.882;-0.310;2023-06-14T13:36:53;22.80;88.20
57566;DHT22;63999;43.882;-0.310;2023-06-14T13:39:26;22.70;88.20
57566;DHT22;63999;43.882;-0.310;2023-06-14T13:41:54;22.80;87.60
57566;DHT22;63999;43.882;-0.310;2023-06-14T13:44:36;22.70;88.40
57566;DHT22;63999;43.882;-0.310;2023-06-14T13:47:02;22.70;86.80
57566;DHT22;63999;43.882;-0.310;2023-06-14T13:49:31;22.60;87.50
57566;DHT22;63999;43.882;-0.310;2023-06-14T13:52:01;22.60;87.80
57566;DHT22;63999;43.882;-0.310;2023-06-14T13:54:27;22.60;87.80
57566;DHT22;63999;43.882;-0.310;2023-06-14T13:56:54;22.60;87.10
57566;DHT22;63999;43.882;-0.310;2023-06-14T13:59:23;22.60;87.60
57566;DHT22;63999;43.882;-0.310;2023-06-14T14:01:50;22.50;87.40
57566;DHT22;63999;43.882;-0.310;2023-06-14T14:07:10;22.60;87.10
57566;DHT22;63999;43.882;-0.310;2023-06-14T14:09:37;22.60;87.70
57566;DHT22;63999;43.882;-0.310;2023-06-14T14:12:04;22.60;87.20
57566;DHT22;63999;43.882;-0.310;2023-06-14T14:14:38;22.60;87.00
57566;DHT22;63999;43.882;-0.310;2023-06-14T14:17:07;22.60;87.20
57566;DHT22;63999;43.882;-0.310;2023-06-14T14:19:36;22.60;88.70
57566;DHT22;63999;43.882;-0.310;2023-06-14T14:22:05;22.60;87.00
57566;DHT22;63999;43.882;-0.310;2023-06-14T14:24:36;22.60;87.20
57566;DHT22;63999;43.882;-0.310;2023-06-14T14:27:16;22.60;87.90
57566;DHT22;63999;43.882;-0.310;2023-06-14T14:29:47;22.60;87.50
57566;DHT22;63999;43.882;-0.310;2023-06-14T14:32:15;22.60;87.30
57566;DHT22;63999;43.882;-0.310;2023-06-14T14:34:42;22.60;87.50
57566;DHT22;63999;43.882;-0.310;2023-06-14T14:37:07;22.60;87.70
57566;DHT22;63999;43.882;-0.310;2023-06-14T14:39:33;22.60;87.60
57566;DHT22;63999;43.882;-0.310;2023-06-14T14:42:00;22.60;87.50
57566;DHT22;63999;43.882;-0.310;2023-06-14T14:44:29;22.70;86.90
57566;DHT22;63999;43.882;-0.310;2023-06-14T14:46:55;22.60;87.10
57566;DHT22;63999;43.882;-0.310;2023-06-14T14:49:23;22.60;87.20
57566;DHT22;63999;43.882;-0.310;2023-06-14T14:51:52;22.50;87.10
57566;DHT22;63999;43.882;-0.310;2023-06-14T14:54:23;22.60;87.00
57566;DHT22;63999;43.882;-0.310;2023-06-14T14:56:55;22.60;87.20
57566;DHT22;63999;43.882;-0.310;2023-06-14T14:59:33;22.60;86.90
57566;DHT22;63999;43.882;-0.310;2023-06-14T15:02:13;22.50;86.60
57566;DHT22;63999;43.882;-0.310;2023-06-14T15:04:55;22.50;87.20
57566;DHT22;63999;43.882;-0.310;2023-06-14T15:07:32;22.50;87.10
57566;DHT22;63999;43.882;-0.310;2023-06-14T15:10:02;22.50;86.80
57566;DHT22;63999;43.882;-0.310;2023-06-14T15:12:30;22.50;86.70
57566;DHT22;63999;43.882;-0.310;2023-06-14T15:14:56;22.50;87.50
57566;DHT22;63999;43.882;-0.310;2023-06-14T15:17:41;22.50;87.60
57566;DHT22;63999;43.882;-0.310;2023-06-14T15:20:10;22.60;87.00
57566;DHT22;63999;43.882;-0.310;2023-06-14T15:22:41;22.50;86.90
57566;DHT22;63999;43.882;-0.310;2023-06-14T15:25:11;22.60;86.50
57566;DHT22;63999;43.882;-0.310;2023-06-14T15:27:45;22.60;86.40
57566;DHT22;63999;43.882;-0.310;2023-06-14T15:30:11;22.50;86.50
57566;DHT22;63999;43.882;-0.310;2023-06-14T15:32:37;22.60;86.40
57566;DHT22;63999;43.882;-0.310;2023-06-14T15:35:09;22.50;86.40
57566;DHT22;63999;43.882;-0.310;2023-06-14T15:37:35;22.60;86.30
57566;DHT22;63999;43.882;-0.310;2023-06-14T15:40:01;22.60;86.50
57566;DHT22;63999;43.882;-0.310;2023-06-14T15:42:27;22.60;86.10
57566;DHT22;63999;43.882;-0.310;2023-06-14T15:44:56;22.60;86.00
57566;DHT22;63999;43.882;-0.310;2023-06-14T15:47:22;22.50;86.20
57566;DHT22;63999;43.882;-0.310;2023-06-14T15:49:48;22.50;86.60